Time;durP1;ratioP1;P1;durP2;ratioP2;P2;SDS_P1;SDS_P2;PMS_P1;PMS_P2;Temp;Humidity;BMP_temperature;BMP_pressure;BME280_temperature;BME280_humidity;BME280_pressure;Samples;Min_cycle;Max_cycle;Signal;HPM_P1;HPM_P2
2023/07/09 00:02:26;;;;;;;3.50;3.15;;;21.10;77.70;;;;;;5071134;28;20024;-74
2023/07/09 00:04:52;;;;;;;2.45;2.25;;;21.10;78.00;;;;;;5069794;28;20021;-74
2023/07/09 00:07:27;;;;;;;2.67;2.40;;;21.00;78.20;;;;;;5071549;28;20024;-74
2023/07/09 00:09:54;;;;;;;3.10;2.80;;;21.00;78.60;;;;;;5060986;28;20429;-74
2023/07/09 00:12:20;;;;;;;3.35;2.63;;;20.90;78.90;;;;;;5050350;28;20087;-74
2023/07/09 00:14:46;;;;;;;2.50;2.25;;;20.90;79.20;;;;;;5059223;28;20036;-74
2023/07/09 00:17:19;;;;;;;2.97;2.45;;;20.90;79.50;;;;;;5071344;28;20032;-73
2023/07/09 00:19:45;;;;;;;2.83;2.15;;;20.90;79.80;;;;;;5072096;28;20033;-74
2023/07/09 00:22:18;;;;;;;2.17;2.03;;;20.90;80.10;;;;;;5071310;28;20059;-73
2023/07/09 00:24:47;;;;;;;2.15;1.98;;;20.80;80.30;;;;;;5071230;28;20063;-73
2023/07/09 00:27:16;;;;;;;2.47;2.28;;;20.80;80.60;;;;;;5074376;28;20016;-73
2023/07/09 00:29:42;;;;;;;1.88;1.70;;;20.80;80.80;;;;;;5071580;28;20169;-74
2023/07/09 00:32:17;;;;;;;2.60;2.40;;;20.70;81.00;;;;;;5071457;28;20520;-74
2023/07/09 00:34:48;;;;;;;2.28;2.08;;;20.70;81.50;;;;;;5071498;28;20115;-74
2023/07/09 00:37:15;;;;;;;2.93;2.63;;;20.60;81.80;;;;;;5072023;28;20082;-74
2023/07/09 00:39:41;;;;;;;2.72;2.42;;;20.60;82.30;;;;;;5064927;28;20264;-73
2023/07/09 00:42:17;;;;;;;3.72;3.22;;;20.50;82.50;;;;;;5065765;28;20357;-73
2023/07/09 00:44:44;;;;;;;4.38;3.63;;;20.50;82.90;;;;;;5069822;28;20025;-73
2023/07/09 00:47:35;;;;;;;3.45;3.15;;;20.50;83.20;;;;;;5076411;28;20034;-73
2023/07/09 00:50:29;;;;;;;3.85;3.47;;;20.50;83.50;;;;;;5088969;28;20048;-74
2023/07/09 00:53:00;;;;;;;3.97;3.17;;;20.50;84.00;;;;;;5089392;28;20037;-74
2023/07/09 00:55:30;;;;;;;3.90;3.30;;;20.40;84.30;;;;;;5092101;28;20542;-73
2023/07/09 00:58:02;;;;;;;4.47;3.55;;;20.40;84.60;;;;;;5074085;28;20266;-73
2023/07/09 01:00:47;;;;;;;3.63;3.08;;;20.30;85.00;;;;;;5071470;28;20036;-73
2023/07/09 01:03:45;;;;;;;4.35;3.47;;;20.30;85.30;;;;;;5071206;28;20505;-74
2023/07/09 01:06:12;;;;;;;4.43;3.35;;;20.30;85.90;;;;;;5045338;28;20044;-74
2023/07/09 01:08:42;;;;;;;3.90;3.58;;;20.30;86.20;;;;;;5071275;28;20425;-73
2023/07/09 01:11:20;;;;;;;3.40;3.10;;;20.20;86.40;;;;;;5051120;28;20041;-73
2023/07/09 01:14:06;;;;;;;3.03;2.75;;;20.20;86.90;;;;;;5050725;28;20064;-74
2023/07/09 01:16:37;;;;;;;3.20;2.85;;;20.20;87.30;;;;;;5057233;28;20032;-74
2023/07/09 01:19:04;;;;;;;2.67;2.47;;;20.10;87.70;;;;;;5053608;28;20111;-73
2023/07/09 01:21:30;;;;;;;3.00;2.70;;;20.10;87.90;;;;;;5072255;28;20513;-73
2023/07/09 01:23:57;;;;;;;2.30;2.10;;;20.10;88.90;;;;;;5073911;28;20389;-73
2023/07/09 01:26:27;;;;;;;2.30;2.10;;;20.10;88.40;;;;;;5074418;28;20031;-75
2023/07/09 01:28:57;;;;;;;2.15;2.03;;;20.10;88.70;;;;;;5074453;28;20081;-74
2023/07/09 01:31:23;;;;;;;2.33;2.13;;;20.10;88.90;;;;;;5074702;28;20112;-73
2023/07/09 01:33:49;;;;;;;2.97;2.67;;;20.10;89.00;;;;;;5075151;28;20071;-74
2023/07/09 01:36:23;;;;;;;2.40;2.20;;;20.10;89.10;;;;;;5076704;28;20019;-73
2023/07/09 01:38:50;;;;;;;2.45;2.25;;;20.10;89.10;;;;;;5071250;28;20024;-73
2023/07/09 01:41:16;;;;;;;2.80;2.45;;;20.10;89.20;;;;;;5054553;28;20029;-73
2023/07/09 01:43:43;;;;;;;2.60;2.40;;;20.10;89.40;;;;;;5054951;28;20032;-74
2023/07/09 01:46:12;;;;;;;2.78;2.53;;;20.00;89.50;;;;;;5057207;28;20032;-73
2023/07/09 01:48:41;;;;;;;2.35;1.90;;;20.00;89.80;;;;;;5055280;28;20482;-74
2023/07/09 01:51:11;;;;;;;2.78;2.40;;;20.00;90.00;;;;;;5053678;28;20048;-74
2023/07/09 01:53:38;;;;;;;2.05;1.85;;;20.00;90.10;;;;;;5063864;28;20027;-73
2023/07/09 01:56:07;;;;;;;2.75;2.33;;;20.00;90.20;;;;;;5075081;28;20086;-73
2023/07/09 01:58:33;;;;;;;1.77;1.67;;;20.00;90.60;;;;;;5074784;28;20382;-74
2023/07/09 02:00:59;;;;;;;2.38;2.17;;;19.90;90.50;;;;;;5074951;28;20132;-74
2023/07/09 02:03:25;;;;;;;2.45;2.25;;;19.90;90.60;;;;;;5074661;28;20036;-74
2023/07/09 02:05:53;;;;;;;2.75;2.42;;;19.90;90.70;;;;;;5074012;28;20028;-74
2023/07/09 02:08:20;;;;;;;2.08;1.92;;;19.90;90.80;;;;;;5077031;28;20020;-74
2023/07/09 02:10:48;;;;;;;2.30;2.10;;;19.80;90.90;;;;;;5066398;28;20115;-74
2023/07/09 02:13:14;;;;;;;2.42;2.15;;;19.80;91.00;;;;;;5074329;28;20032;-73
2023/07/09 02:15:43;;;;;;;1.90;1.80;;;19.80;91.00;;;;;;5076720;28;20385;-74
2023/07/09 02:18:12;;;;;;;2.60;2.08;;;19.80;91.10;;;;;;5074479;28;20028;-74
2023/07/09 02:20:38;;;;;;;2.25;2.05;;;19.80;91.20;;;;;;5073847;28;20107;-73
2023/07/09 02:23:05;;;;;;;2.42;2.10;;;19.80;91.30;;;;;;5073941;28;20067;-72
2023/07/09 02:25:30;;;;;;;2.00;1.88;;;19.80;91.30;;;;;;5073896;28;20032;-74
2023/07/09 02:27:56;;;;;;;2.75;2.10;;;19.80;91.40;;;;;;5072850;28;20016;-73
2023/07/09 02:30:21;;;;;;;2.75;2.20;;;19.80;91.40;;;;;;5073690;28;20059;-73
2023/07/09 02:32:47;;;;;;;2.05;1.88;;;19.70;91.50;;;;;;5075265;28;20095;-74
2023/07/09 02:35:13;;;;;;;2.35;2.15;;;19.70;91.60;;;;;;5073336;28;20021;-74
2023/07/09 02:37:38;;;;;;;2.28;2.08;;;19.70;91.70;;;;;;5072577;28;20493;-74
2023/07/09 02:40:05;;;;;;;2.00;1.88;;;19.70;91.90;;;;;;5073229;28;20103;-74
2023/07/09 02:42:31;;;;;;;2.15;1.95;;;19.70;92.00;;;;;;5072422;28;20454;-74
2023/07/09 02:44:56;;;;;;;2.00;1.85;;;19.70;92.00;;;;;;5072907;28;20123;-74
2023/07/09 02:47:22;;;;;;;1.80;1.70;;;19.70;92.10;;;;;;5072888;28;20067;-74
2023/07/09 02:49:48;;;;;;;2.00;1.80;;;19.70;92.10;;;;;;5075061;28;20016;-74
2023/07/09 02:52:14;;;;;;;2.10;1.90;;;19.70;92.20;;;;;;5071633;28;20020;-74
2023/07/09 02:54:39;;;;;;;1.67;1.55;;;19.70;92.20;;;;;;5072418;28;20070;-74
2023/07/09 02:57:06;;;;;;;1.90;1.70;;;19.60;92.20;;;;;;5073184;28;20033;-74
2023/07/09 02:59:32;;;;;;;1.60;1.50;;;19.60;92.30;;;;;;5075059;28;20032;-74
2023/07/09 03:02:00;;;;;;;2.10;1.90;;;19.60;92.30;;;;;;5074097;28;20028;-74
2023/07/09 03:04:26;;;;;;;1.85;1.75;;;19.60;92.40;;;;;;5072147;28;20405;-74
2023/07/09 03:06:52;;;;;;;1.80;1.70;;;19.60;92.60;;;;;;5071152;28;20029;-74
2023/07/09 03:09:18;;;;;;;1.70;1.50;;;19.50;92.70;;;;;;5069842;28;20016;-74
2023/07/09 03:11:44;;;;;;;1.55;1.45;;;19.50;92.80;;;;;;5068324;28;20063;-73
2023/07/09 03:14:10;;;;;;;1.65;1.55;;;19.50;92.80;;;;;;5073484;28;20033;-73
2023/07/09 03:16:35;;;;;;;1.50;1.40;;;19.50;92.90;;;;;;5072213;28;20031;-73
2023/07/09 03:19:03;;;;;;;2.15;1.98;;;19.50;92.90;;;;;;5073042;28;20025;-74
2023/07/09 03:21:28;;;;;;;1.50;1.40;;;19.50;93.00;;;;;;5072531;28;20095;-74
2023/07/09 03:23:55;;;;;;;1.75;1.63;;;19.50;93.10;;;;;;5074631;28;20040;-73
2023/07/09 03:26:21;;;;;;;1.60;1.50;;;19.50;93.10;;;;;;5072552;28;20020;-73
2023/07/09 03:28:47;;;;;;;1.63;1.52;;;19.50;93.10;;;;;;5072843;28;20077;-74
2023/07/09 03:31:13;;;;;;;1.95;1.85;;;19.50;93.10;;;;;;5072869;28;20257;-74
2023/07/09 03:33:38;;;;;;;1.90;1.80;;;19.50;93.00;;;;;;5076199;28;20025;-73
2023/07/09 03:36:05;;;;;;;1.70;1.60;;;19.50;93.10;;;;;;5070756;28;20032;-74
2023/07/09 03:38:31;;;;;;;2.10;1.90;;;19.50;93.10;;;;;;5071305;28;20032;-73
2023/07/09 03:40:57;;;;;;;1.80;1.70;;;19.50;93.10;;;;;;5072603;28;20024;-74
2023/07/09 03:43:24;;;;;;;2.47;2.28;;;19.50;93.10;;;;;;5074609;28;20463;-73
2023/07/09 03:45:50;;;;;;;2.05;1.80;;;19.50;93.10;;;;;;5073531;28;20064;-74
2023/07/09 03:48:18;;;;;;;1.83;1.70;;;19.50;93.00;;;;;;5078182;28;20025;-73
2023/07/09 03:50:45;;;;;;;1.50;1.40;;;19.50;93.00;;;;;;5088750;28;20084;-73
2023/07/09 03:53:11;;;;;;;2.05;1.95;;;19.50;93.00;;;;;;5088288;28;20020;-73
2023/07/09 03:55:37;;;;;;;2.17;1.95;;;19.60;93.00;;;;;;5087180;28;20047;-72
2023/07/09 03:58:03;;;;;;;1.77;1.67;;;19.60;93.00;;;;;;5084930;28;20047;-73
2023/07/09 04:00:29;;;;;;;1.70;1.60;;;19.60;92.90;;;;;;5087445;28;20023;-73
2023/07/09 04:02:56;;;;;;;1.70;1.60;;;19.60;92.90;;;;;;5095555;28;20021;-73
2023/07/09 04:05:23;;;;;;;1.90;1.80;;;19.60;92.90;;;;;;5078645;28;20117;-73
2023/07/09 04:07:49;;;;;;;1.60;1.50;;;19.60;92.90;;;;;;5072440;28;20477;-74
2023/07/09 04:10:15;;;;;;;2.20;2.00;;;19.60;92.90;;;;;;5068396;28;20035;-74
2023/07/09 04:12:40;;;;;;;1.98;1.80;;;19.60;92.90;;;;;;5071124;28;20095;-74
2023/07/09 04:15:07;;;;;;;2.00;1.88;;;19.70;92.90;;;;;;5073871;28;20112;-73
2023/07/09 04:17:32;;;;;;;2.28;2.08;;;19.70;92.90;;;;;;5071141;28;20048;-74
2023/07/09 04:19:58;;;;;;;2.35;2.15;;;19.70;92.90;;;;;;5071606;28;20031;-73
2023/07/09 04:22:24;;;;;;;2.92;2.50;;;19.70;92.90;;;;;;5071558;28;20500;-74
2023/07/09 04:24:51;;;;;;;2.85;2.50;;;19.70;92.80;;;;;;5071104;28;20056;-74
2023/07/09 04:27:18;;;;;;;2.42;2.22;;;19.70;93.10;;;;;;5070984;28;20745;-74
2023/07/09 04:29:43;;;;;;;2.35;2.15;;;19.70;92.80;;;;;;5072572;28;20032;-73
2023/07/09 04:32:14;;;;;;;3.10;2.42;;;19.80;92.70;;;;;;5071546;28;20021;-73
2023/07/09 04:34:40;;;;;;;3.55;2.70;;;19.80;92.70;;;;;;5072445;28;20025;-74
2023/07/09 04:37:11;;;;;;;2.47;2.10;;;19.80;92.70;;;;;;5072241;28;20130;-73
2023/07/09 04:39:37;;;;;;;2.30;2.10;;;19.90;92.70;;;;;;5067938;28;20568;-73
2023/07/09 04:42:04;;;;;;;2.90;2.28;;;20.00;92.70;;;;;;5071915;28;20044;-74
2023/07/09 04:44:29;;;;;;;2.53;2.33;;;20.00;92.50;;;;;;5070579;28;20032;-73
2023/07/09 04:46:55;;;;;;;2.67;2.25;;;20.10;92.40;;;;;;5071516;28;20026;-73
2023/07/09 04:49:21;;;;;;;2.60;2.20;;;20.10;92.10;;;;;;5072482;28;20021;-73
2023/07/09 04:51:46;;;;;;;2.13;2.00;;;20.20;91.90;;;;;;5077074;28;20048;-75
2023/07/09 04:54:13;;;;;;;2.25;2.05;;;20.30;91.80;;;;;;5078448;28;20145;-75
2023/07/09 04:56:39;;;;;;;2.40;2.20;;;20.40;91.50;;;;;;5075408;28;20020;-75
2023/07/09 04:59:05;;;;;;;2.83;2.45;;;20.40;91.30;;;;;;5075698;28;20382;-75
2023/07/09 05:01:30;;;;;;;2.63;2.05;;;20.50;91.10;;;;;;5076843;28;20028;-75
2023/07/09 05:03:56;;;;;;;2.40;2.20;;;20.60;91.00;;;;;;5075090;28;20452;-75
2023/07/09 05:06:22;;;;;;;2.63;2.42;;;20.60;90.70;;;;;;5075048;28;20024;-75
2023/07/09 05:08:48;;;;;;;2.72;2.53;;;20.70;90.50;;;;;;5066253;28;20035;-74
2023/07/09 05:11:14;;;;;;;2.30;2.10;;;20.80;90.30;;;;;;5073688;28;20432;-74
2023/07/09 05:13:40;;;;;;;3.10;2.33;;;21.00;90.20;;;;;;5074359;28;20066;-74
2023/07/09 05:16:06;;;;;;;2.58;2.38;;;22.10;88.90;;;;;;5075088;28;20024;-74
2023/07/09 05:18:32;;;;;;;2.20;2.05;;;;;;;;;;5074515;28;20032;-74
2023/07/09 05:20:58;;;;;;;2.00;1.80;;;27.30;71.30;;;;;;5074441;28;20100;-75
2023/07/09 05:23:25;;;;;;;2.03;1.80;;;27.30;70.90;;;;;;5074394;28;20024;-75
2023/07/09 05:26:02;;;;;;;1.95;1.85;;;28.60;65.40;;;;;;5074606;28;20032;-75
2023/07/09 05:28:29;;;;;;;1.63;1.52;;;29.70;61.70;;;;;;5077120;28;20374;-73
2023/07/09 05:30:55;;;;;;;1.70;1.60;;;30.80;58.30;;;;;;5072490;28;20020;-74
2023/07/09 05:33:21;;;;;;;1.52;1.42;;;31.60;55.70;;;;;;5074416;28;20028;-73
2023/07/09 05:35:47;;;;;;;1.50;1.40;;;32.40;53.90;;;;;;5074977;28;20504;-74
2023/07/09 05:38:14;;;;;;;1.20;1.20;;;33.20;51.90;;;;;;5074798;28;20036;-74
2023/07/09 05:40:40;;;;;;;1.23;1.23;;;33.90;50.30;;;;;;5071312;28;20032;-74
2023/07/09 05:43:05;;;;;;;1.33;1.33;;;34.50;48.90;;;;;;5074335;28;20102;-74
2023/07/09 05:45:31;;;;;;;1.00;1.00;;;34.80;47.80;;;;;;5074228;28;20055;-74
2023/07/09 05:48:01;;;;;;;1.20;1.20;;;34.80;47.20;;;;;;5074662;28;20021;-75
2023/07/09 05:50:28;;;;;;;1.50;1.40;;;35.00;47.20;;;;;;5074878;28;20040;-73
2023/07/09 05:52:53;;;;;;;1.60;1.60;;;35.20;46.20;;;;;;5075475;28;20021;-74
2023/07/09 05:55:19;;;;;;;1.45;1.35;;;35.40;45.80;;;;;;5074004;28;20054;-74
2023/07/09 05:57:45;;;;;;;1.17;1.17;;;35.60;45.40;;;;;;5074722;28;20108;-74
2023/07/09 06:00:12;;;;;;;1.75;1.65;;;35.60;45.10;;;;;;5074236;28;20055;-73
2023/07/09 06:02:38;;;;;;;1.55;1.45;;;35.50;45.30;;;;;;5076128;28;20020;-75
2023/07/09 06:05:04;;;;;;;1.40;1.40;;;35.40;45.40;;;;;;5074136;28;20070;-74
2023/07/09 06:07:30;;;;;;;1.30;1.30;;;35.30;45.20;;;;;;5076782;28;20017;-75
2023/07/09 06:09:57;;;;;;;1.10;1.10;;;35.10;45.80;;;;;;5074539;28;20104;-74
2023/07/09 06:12:23;;;;;;;1.15;1.15;;;34.90;45.50;;;;;;5062528;28;20030;-74
2023/07/09 06:14:49;;;;;;;1.10;1.10;;;34.80;45.90;;;;;;5062349;28;20074;-75
2023/07/09 06:17:15;;;;;;;1.33;1.33;;;34.60;45.80;;;;;;5077367;28;20424;-73
2023/07/09 06:19:40;;;;;;;1.30;1.30;;;35.00;46.10;;;;;;5076194;28;20103;-74
2023/07/09 06:22:06;;;;;;;1.13;1.13;;;35.80;45.30;;;;;;5077192;28;20444;-75
2023/07/09 06:24:32;;;;;;;1.27;1.27;;;36.40;44.30;;;;;;5060160;28;20029;-74
2023/07/09 06:26:59;;;;;;;1.17;1.17;;;37.00;43.60;;;;;;5076444;28;20085;-74
2023/07/09 06:29:26;;;;;;;1.23;1.23;;;37.50;42.90;;;;;;5075339;28;20536;-74
2023/07/09 06:31:52;;;;;;;1.38;1.38;;;37.90;42.10;;;;;;5078197;28;20028;-76
2023/07/09 06:34:17;;;;;;;1.30;1.30;;;38.10;41.80;;;;;;5076292;28;20050;-76
2023/07/09 06:36:43;;;;;;;1.45;1.35;;;38.20;41.30;;;;;;5075312;28;20027;-74
2023/07/09 06:39:09;;;;;;;1.20;1.20;;;38.30;41.60;;;;;;5060848;28;20031;-74
2023/07/09 06:41:38;;;;;;;1.50;1.45;;;38.40;40.90;;;;;;5074940;28;20066;-75
2023/07/09 06:44:06;;;;;;;1.20;1.20;;;38.20;41.10;;;;;;5072846;28;20021;-75
2023/07/09 06:46:32;;;;;;;1.50;1.40;;;38.00;41.20;;;;;;5073294;28;20079;-75
2023/07/09 06:48:57;;;;;;;1.58;1.48;;;37.90;41.30;;;;;;5073968;28;20134;-75
2023/07/09 06:51:23;;;;;;;1.35;1.35;;;38.00;41.20;;;;;;5074688;28;20021;-75
2023/07/09 06:53:50;;;;;;;2.75;1.95;;;38.30;41.00;;;;;;5075234;28;20426;-75
2023/07/09 06:56:16;;;;;;;1.70;1.60;;;38.30;40.00;;;;;;5075454;28;20490;-75
2023/07/09 06:58:42;;;;;;;1.67;1.58;;;38.40;39.90;;;;;;5077819;28;20060;-76
2023/07/09 07:01:10;;;;;;;1.92;1.75;;;38.80;39.40;;;;;;5089143;28;20013;-74
2023/07/09 07:03:36;;;;;;;1.80;1.70;;;38.90;38.80;;;;;;5095450;28;20038;-74
2023/07/09 07:06:03;;;;;;;2.08;1.92;;;39.00;38.70;;;;;;5090639;28;20272;-74
2023/07/09 07:08:29;;;;;;;1.88;1.77;;;39.00;38.60;;;;;;5091324;28;20099;-74
2023/07/09 07:11:02;;;;;;;2.10;2.00;;;39.10;38.40;;;;;;5081588;28;20048;-73
2023/07/09 07:13:33;;;;;;;1.63;1.58;;;39.20;38.10;;;;;;5073195;28;20092;-74
2023/07/09 07:15:59;;;;;;;2.15;2.05;;;39.20;37.90;;;;;;5056304;28;20013;-74
2023/07/09 07:18:25;;;;;;;1.70;1.60;;;39.20;37.90;;;;;;5055620;28;20017;-74
2023/07/09 07:20:51;;;;;;;1.70;1.60;;;39.20;37.90;;;;;;5060508;28;20016;-75
2023/07/09 07:23:17;;;;;;;1.35;1.35;;;;;;;;;;5063861;28;20529;-74
2023/07/09 07:25:44;;;;;;;1.55;1.52;;;36.00;38.50;;;;;;5074998;28;20047;-74
2023/07/09 07:28:09;;;;;;;2.05;1.90;;;33.90;41.90;;;;;;5072690;28;20550;-74
2023/07/09 07:30:35;;;;;;;2.13;2.03;;;32.10;44.40;;;;;;5072693;28;20111;-75
2023/07/09 07:33:01;;;;;;;2.30;2.20;;;30.70;46.30;;;;;;5072198;28;20166;-74
2023/07/09 07:35:26;;;;;;;2.10;2.00;;;29.60;48.00;;;;;;5072353;28;20150;-75
2023/07/09 07:37:52;;;;;;;4.65;3.03;;;28.90;49.60;;;;;;5072340;28;20028;-74
2023/07/09 07:40:17;;;;;;;4.10;3.38;;;28.30;50.70;;;;;;5059631;28;20499;-74
2023/07/09 07:42:43;;;;;;;3.40;3.10;;;27.90;51.50;;;;;;5065445;28;20059;-74
2023/07/09 07:45:09;;;;;;;3.45;3.15;;;;;;;;;;5071704;28;20029;-75
2023/07/09 07:47:35;;;;;;;2.88;2.58;;;27.40;52.00;;;;;;5072973;28;20028;-74
2023/07/09 07:50:01;;;;;;;2.97;2.67;;;27.30;53.00;;;;;;5072640;28;20020;-74
2023/07/09 07:52:28;;;;;;;3.20;2.90;;;27.20;53.20;;;;;;5072732;28;20397;-74
2023/07/09 07:54:54;;;;;;;3.20;2.90;;;27.20;53.40;;;;;;5071962;28;20025;-74
2023/07/09 07:57:21;;;;;;;2.90;2.58;;;27.20;53.50;;;;;;5072421;28;20024;-74
2023/07/09 07:59:47;;;;;;;3.08;2.75;;;27.20;53.60;;;;;;5071559;28;20025;-74
2023/07/09 08:02:13;;;;;;;4.53;3.30;;;27.10;53.60;;;;;;5072373;28;20491;-74
2023/07/09 08:05:41;;;;;;;4.65;3.60;;;27.10;53.70;;;;;;5072539;28;20028;-77
2023/07/09 08:08:06;;;;;;;3.28;2.97;;;27.10;54.20;;;;;;5056452;28;20024;-75
2023/07/09 08:10:32;;;;;;;3.08;2.78;;;27.20;54.30;;;;;;5056712;28;20029;-75
2023/07/09 08:12:57;;;;;;;3.60;3.30;;;27.20;54.40;;;;;;5051967;28;20036;-75
2023/07/09 08:15:24;;;;;;;3.78;3.08;;;27.20;54.50;;;;;;5051960;28;20386;-75
2023/07/09 08:17:50;;;;;;;2.85;2.65;;;27.10;54.50;;;;;;5073220;28;20074;-75
2023/07/09 08:20:16;;;;;;;2.60;2.40;;;27.20;54.30;;;;;;5071083;28;20029;-75
2023/07/09 08:22:41;;;;;;;2.50;2.30;;;27.30;53.80;;;;;;5072530;28;20017;-75
2023/07/09 08:25:07;;;;;;;3.10;2.58;;;27.40;53.50;;;;;;5074385;28;20028;-75
2023/07/09 08:27:33;;;;;;;3.10;2.85;;;27.60;53.40;;;;;;5076326;28;20448;-75
2023/07/09 08:29:58;;;;;;;3.50;2.70;;;27.60;53.10;;;;;;5076775;28;20036;-75
2023/07/09 08:32:24;;;;;;;4.13;3.72;;;27.70;52.80;;;;;;5076875;28;20025;-75
2023/07/09 08:34:49;;;;;;;3.92;3.30;;;27.70;52.40;;;;;;5076307;28;20623;-75
2023/07/09 08:37:15;;;;;;;3.47;3.17;;;27.70;52.20;;;;;;5076190;28;20043;-74
2023/07/09 08:39:41;;;;;;;4.07;3.55;;;27.80;52.10;;;;;;5070360;28;20032;-74
2023/07/09 08:42:13;;;;;;;4.00;3.60;;;28.00;51.90;;;;;;5057508;28;20406;-75
2023/07/09 08:45:03;;;;;;;3.15;2.80;;;28.00;51.80;;;;;;5056369;28;20029;-74
2023/07/09 08:47:47;;;;;;;3.50;3.00;;;28.10;51.40;;;;;;5057365;28;20020;-75
2023/07/09 08:50:16;;;;;;;3.28;2.97;;;28.20;51.20;;;;;;5074796;28;20024;-74
2023/07/09 08:52:44;;;;;;;3.15;2.85;;;28.40;51.10;;;;;;5077557;28;20017;-75
2023/07/09 08:55:16;;;;;;;3.85;3.45;;;28.40;50.90;;;;;;5077633;28;20086;-75
2023/07/09 08:57:50;;;;;;;2.90;2.70;;;28.50;50.90;;;;;;5080677;28;20032;-76
2023/07/09 09:00:41;;;;;;;3.22;2.92;;;28.60;50.80;;;;;;5079623;28;20028;-75
2023/07/09 09:03:16;;;;;;;2.70;2.50;;;28.60;50.50;;;;;;5081970;28;20025;-75
2023/07/09 09:05:44;;;;;;;3.47;3.08;;;28.80;50.30;;;;;;5092194;28;20043;-74
2023/07/09 09:08:24;;;;;;;3.35;3.10;;;28.90;49.80;;;;;;5093032;28;20025;-74
2023/07/09 09:11:39;;;;;;;3.97;2.95;;;29.00;50.30;;;;;;5095481;28;20066;-75
2023/07/09 09:14:19;;;;;;;4.43;3.58;;;29.20;49.30;;;;;;5081507;28;20049;-74
2023/07/09 09:16:46;;;;;;;3.60;3.22;;;29.30;48.80;;;;;;5063979;28;20029;-74
2023/07/09 09:19:36;;;;;;;4.38;3.53;;;29.30;48.80;;;;;;5058306;28;20017;-76
2023/07/09 09:22:08;;;;;;;3.63;2.92;;;29.50;48.30;;;;;;5070530;28;20021;-75
2023/07/09 09:24:57;;;;;;;;;;;29.50;47.90;;;;;;5076563;28;20070;-75
2023/07/09 09:27:22;;;;;;;3.75;3.33;;;29.40;47.80;;;;;;5075001;28;20265;-75
2023/07/09 09:29:48;;;;;;;3.40;3.00;;;29.50;47.70;;;;;;5074782;28;20025;-75
2023/07/09 09:32:21;;;;;;;3.10;2.90;;;29.70;47.00;;;;;;5076074;28;20029;-75
2023/07/09 09:34:47;;;;;;;3.25;2.90;;;29.80;46.90;;;;;;5075321;28;20105;-75
2023/07/09 09:37:12;;;;;;;3.40;2.78;;;29.90;46.10;;;;;;5075759;28;20127;-76
2023/07/09 09:39:39;;;;;;;3.53;2.97;;;29.90;46.20;;;;;;5075713;28;20032;-75
2023/07/09 09:42:11;;;;;;;3.40;3.05;;;30.00;45.90;;;;;;5075906;28;20106;-75
2023/07/09 09:44:42;;;;;;;3.38;3.08;;;30.10;46.00;;;;;;5075927;28;20025;-75
2023/07/09 09:47:10;;;;;;;3.10;2.80;;;30.20;46.00;;;;;;5076036;28;20365;-74
2023/07/09 09:49:43;;;;;;;3.17;2.90;;;30.30;45.40;;;;;;5076741;28;20033;-76
2023/07/09 09:52:14;;;;;;;3.80;3.50;;;30.40;45.20;;;;;;5076484;28;20387;-75
2023/07/09 09:54:51;;;;;;;3.30;3.00;;;30.50;45.10;;;;;;5075744;28;20048;-75
2023/07/09 09:57:21;;;;;;;2.92;2.72;;;30.60;44.80;;;;;;5075611;28;20032;-75
2023/07/09 09:59:47;;;;;;;3.53;3.22;;;30.70;44.80;;;;;;5076120;28;20017;-76
2023/07/09 10:02:24;;;;;;;6.07;3.45;;;30.80;44.50;;;;;;5076956;28;20059;-76
2023/07/09 10:04:51;;;;;;;3.47;3.17;;;30.90;44.50;;;;;;5076967;28;20024;-80
2023/07/09 10:07:30;;;;;;;3.50;3.20;;;31.00;44.60;;;;;;5076143;28;20020;-76
2023/07/09 10:09:56;;;;;;;3.38;3.08;;;31.00;44.50;;;;;;5066037;28;20029;-76
2023/07/09 10:12:40;;;;;;;4.45;3.30;;;31.10;44.10;;;;;;5074898;28;20039;-76
2023/07/09 10:15:35;;;;;;;3.33;3.03;;;31.10;43.90;;;;;;5076174;28;20035;-75
2023/07/09 10:18:10;;;;;;;2.78;2.58;;;31.30;43.70;;;;;;5075676;28;20024;-75
2023/07/09 10:20:51;;;;;;;2.97;2.70;;;31.50;43.30;;;;;;5073664;28;20028;-75
2023/07/09 10:23:28;;;;;;;5.00;3.10;;;31.60;43.20;;;;;;5070813;28;20025;-76
2023/07/09 10:26:11;;;;;;;2.95;2.65;;;31.60;43.30;;;;;;5066904;28;20035;-75
2023/07/09 10:29:22;;;;;;;3.50;3.17;;;31.60;43.00;;;;;;5074778;28;20398;-75
2023/07/09 10:32:15;;;;;;;4.35;3.20;;;31.50;43.20;;;;;;5070784;28;20037;-75
2023/07/09 10:34:56;;;;;;;4.78;3.40;;;31.50;43.60;;;;;;5076594;28;20048;-74
2023/07/09 10:37:47;;;;;;;5.43;3.50;;;31.70;42.70;;;;;;5076734;28;20021;-76
2023/07/09 10:40:17;;;;;;;3.58;3.25;;;31.80;42.20;;;;;;5056763;28;20036;-75
2023/07/09 10:42:50;;;;;;;3.88;3.50;;;31.80;42.80;;;;;;5061038;28;20112;-76
2023/07/09 10:45:28;;;;;;;3.97;3.00;;;31.80;43.60;;;;;;5063462;28;20029;-75
2023/07/09 10:48:23;;;;;;;3.22;2.90;;;31.80;42.40;;;;;;5068983;28;20017;-75
2023/07/09 10:50:52;;;;;;;3.15;2.85;;;32.00;42.30;;;;;;5047793;28;20037;-75
2023/07/09 10:53:36;;;;;;;3.20;3.00;;;32.20;42.50;;;;;;5055832;28;20021;-75
2023/07/09 10:56:15;;;;;;;5.55;3.90;;;32.30;42.30;;;;;;5057872;28;20111;-75
2023/07/09 10:58:49;;;;;;;3.70;3.03;;;32.40;41.70;;;;;;5076187;28;20047;-75
2023/07/09 11:01:15;;;;;;;3.20;2.90;;;32.00;42.00;;;;;;5075593;28;20393;-75
2023/07/09 11:03:56;;;;;;;3.50;3.20;;;31.70;42.70;;;;;;5075088;28;20028;-75
2023/07/09 11:06:38;;;;;;;3.03;2.80;;;31.50;43.70;;;;;;5077104;28;20024;-75
2023/07/09 11:09:14;;;;;;;3.17;2.65;;;31.70;43.80;;;;;;5078023;28;20023;-75
2023/07/09 11:11:48;;;;;;;2.92;2.70;;;32.10;43.50;;;;;;5078143;28;20091;-76
2023/07/09 11:14:29;;;;;;;3.30;3.00;;;32.20;42.70;;;;;;5077383;28;20024;-75
2023/07/09 11:16:57;;;;;;;3.83;3.45;;;32.00;43.00;;;;;;5075087;28;20080;-76
2023/07/09 11:19:24;;;;;;;3.50;3.05;;;32.00;43.20;;;;;;5074385;28;20043;-75
2023/07/09 11:22:07;;;;;;;3.50;2.90;;;32.00;43.50;;;;;;5068527;28;20479;-76
2023/07/09 11:24:52;;;;;;;3.30;2.97;;;32.30;43.20;;;;;;5059235;28;20170;-75
2023/07/09 11:27:27;;;;;;;4.07;3.67;;;32.80;42.60;;;;;;5055032;28;20021;-74
2023/07/09 11:30:01;;;;;;;3.70;3.20;;;33.00;41.70;;;;;;5054702;28;20021;-74
2023/07/09 11:32:28;;;;;;;3.38;3.08;;;33.10;40.90;;;;;;5058674;28;20470;-76
2023/07/09 11:34:54;;;;;;;3.63;3.25;;;33.20;40.80;;;;;;5076163;28;20080;-76
2023/07/09 11:37:25;;;;;;;4.85;3.88;;;33.50;40.30;;;;;;5075443;28;20031;-76
2023/07/09 11:39:51;;;;;;;4.80;4.20;;;33.80;40.60;;;;;;5073714;28;20124;-76
2023/07/09 11:42:32;;;;;;;5.13;3.75;;;33.90;39.50;;;;;;5069269;28;20485;-76
2023/07/09 11:45:12;;;;;;;4.10;3.80;;;34.00;39.60;;;;;;5065640;28;20031;-75
2023/07/09 11:47:42;;;;;;;9.00;4.40;;;34.00;39.10;;;;;;5065461;28;20034;-75
2023/07/09 11:50:30;;;;;;;3.97;3.67;;;33.80;39.20;;;;;;5074251;28;20035;-75
2023/07/09 11:53:00;;;;;;;3.85;3.28;;;33.80;39.30;;;;;;5075208;28;20043;-75
2023/07/09 11:55:35;;;;;;;6.60;4.80;;;33.70;39.30;;;;;;5073634;28;20024;-75
2023/07/09 11:58:02;;;;;;;4.90;4.32;;;33.90;39.50;;;;;;5073441;28;20042;-75
2023/07/09 12:00:36;;;;;;;3.83;3.53;;;34.00;39.30;;;;;;5064826;28;20020;-75
2023/07/09 12:03:02;;;;;;;4.38;3.88;;;34.00;39.30;;;;;;5074232;28;20035;-75
2023/07/09 12:05:29;;;;;;;3.50;3.20;;;34.00;39.40;;;;;;5086425;28;20059;-74
2023/07/09 12:07:56;;;;;;;4.05;3.63;;;33.90;39.60;;;;;;5088730;28;20024;-75
2023/07/09 12:10:25;;;;;;;4.20;3.80;;;33.70;39.90;;;;;;5074205;28;20025;-74
2023/07/09 12:12:56;;;;;;;7.38;4.28;;;33.20;40.30;;;;;;5069401;28;20028;-75
2023/07/09 12:15:27;;;;;;;5.05;3.63;;;32.70;40.90;;;;;;5068302;28;20090;-74
2023/07/09 12:18:02;;;;;;;4.13;3.72;;;32.30;41.50;;;;;;5071534;28;20044;-75
2023/07/09 12:20:31;;;;;;;5.18;3.70;;;;;;;;;;5056397;28;20027;-75
2023/07/09 12:22:57;;;;;;;4.78;3.65;;;;;;;;;;5072017;28;20032;-76
2023/07/09 12:25:30;;;;;;;4.20;3.67;;;;;;;;;;5088665;28;20032;-74
2023/07/09 12:27:58;;;;;;;4.05;3.70;;;33.20;40.30;;;;;;5080011;28;20084;-75
2023/07/09 12:30:24;;;;;;;6.45;4.13;;;33.20;40.80;;;;;;5076705;28;20103;-75
2023/07/09 12:32:52;;;;;;;3.67;3.33;;;33.50;40.20;;;;;;5075183;28;20040;-75
2023/07/09 12:35:18;;;;;;;4.00;3.67;;;33.70;39.80;;;;;;5074232;28;20455;-74
2023/07/09 12:37:46;;;;;;;3.72;3.20;;;33.60;39.60;;;;;;5070572;28;20093;-75
2023/07/09 12:40:20;;;;;;;3.63;3.33;;;33.50;39.90;;;;;;5070078;28;20024;-75
2023/07/09 12:42:46;;;;;;;3.42;3.13;;;33.40;40.10;;;;;;5061347;28;20034;-74
2023/07/09 12:45:20;;;;;;;4.25;2.95;;;33.10;40.00;;;;;;5073677;28;20024;-76
2023/07/09 12:47:48;;;;;;;3.80;3.50;;;32.80;40.10;;;;;;5065008;28;20036;-73
2023/07/09 12:50:33;;;;;;;3.40;3.10;;;32.60;40.60;;;;;;5073467;28;20069;-75
2023/07/09 12:53:14;;;;;;;4.15;3.75;;;32.40;40.90;;;;;;5076372;28;20036;-75
2023/07/09 12:55:42;;;;;;;3.83;3.47;;;32.60;40.50;;;;;;5075310;28;20108;-75
2023/07/09 12:58:24;;;;;;;3.80;3.40;;;33.00;40.30;;;;;;5076054;28;20073;-74
2023/07/09 13:00:54;;;;;;;4.90;3.85;;;33.40;40.00;;;;;;5075762;28;20116;-75
2023/07/09 13:03:31;;;;;;;4.20;3.88;;;33.50;39.70;;;;;;5066180;28;20029;-75